<?xml version="1.0" encoding="UTF-8" standalone="no" ?>
<gpx xmlns="http://www.topografix.com/GPX/1/1" xmlns:xsi="http://www.w3.org/2001/XMLSchema-instance" xsi:schemaLocation="http://www.topografix.com/GPX/1/1 http://www.topografix.com/GPX/1/1/gpx.xsd" version="1.1" creator="VisuGPX - https://www.visugpx.com">
  <metadata>
    <name>15487162-8469271-BOIS D'OINGT</name>
  </metadata>
  <trk>
    <name><![CDATA[15487162-8469271-BOIS D'OINGT]]></name>
    <trkseg>
      <trkpt lat="45.92089" lon="4.58817">
        <ele>332</ele>
        <time>2022-09-04T06:06:27Z</time>
      </trkpt>
      <trkpt lat="45.9212" lon="4.58829">
        <ele>331</ele>
        <time>2022-09-04T06:07:10Z</time>
      </trkpt>
      <trkpt lat="45.92133" lon="4.58793">
        <ele>335</ele>
        <time>2022-09-04T06:07:47Z</time>
      </trkpt>
      <trkpt lat="45.92149" lon="4.58789">
        <ele>335</ele>
        <time>2022-09-04T06:08:09Z</time>
      </trkpt>
      <trkpt lat="45.92196" lon="4.58805">
        <ele>336</ele>
        <time>2022-09-04T06:09:14Z</time>
      </trkpt>
      <trkpt lat="45.92227" lon="4.58841">
        <ele>336</ele>
        <time>2022-09-04T06:10:07Z</time>
      </trkpt>
      <trkpt lat="45.9228" lon="4.58926">
        <ele>337</ele>
        <time>2022-09-04T06:11:53Z</time>
      </trkpt>
      <trkpt lat="45.92307" lon="4.58974">
        <ele>335</ele>
        <time>2022-09-04T06:12:50Z</time>
      </trkpt>
      <trkpt lat="45.92327" lon="4.58988">
        <ele>335</ele>
        <time>2022-09-04T06:13:20Z</time>
      </trkpt>
      <trkpt lat="45.92342" lon="4.58992">
        <ele>337</ele>
        <time>2022-09-04T06:13:40Z</time>
      </trkpt>
      <trkpt lat="45.92353" lon="4.5902">
        <ele>336</ele>
        <time>2022-09-04T06:14:10Z</time>
      </trkpt>
      <trkpt lat="45.92374" lon="4.59047">
        <ele>336</ele>
        <time>2022-09-04T06:14:48Z</time>
      </trkpt>
      <trkpt lat="45.92401" lon="4.59134">
        <ele>331</ele>
        <time>2022-09-04T06:16:16Z</time>
      </trkpt>
      <trkpt lat="45.92436" lon="4.59191">
        <ele>331</ele>
        <time>2022-09-04T06:17:27Z</time>
      </trkpt>
      <trkpt lat="45.92454" lon="4.59208">
        <ele>331</ele>
        <time>2022-09-04T06:17:55Z</time>
      </trkpt>
      <trkpt lat="45.92588" lon="4.59271">
        <ele>337</ele>
        <time>2022-09-04T06:21:03Z</time>
      </trkpt>
      <trkpt lat="45.92596" lon="4.59285">
        <ele>337</ele>
        <time>2022-09-04T06:21:20Z</time>
      </trkpt>
      <trkpt lat="45.92602" lon="4.59315">
        <ele>338</ele>
        <time>2022-09-04T06:21:49Z</time>
      </trkpt>
      <trkpt lat="45.92614" lon="4.59337">
        <ele>340</ele>
        <time>2022-09-04T06:22:15Z</time>
      </trkpt>
      <trkpt lat="45.92632" lon="4.59348">
        <ele>344</ele>
        <time>2022-09-04T06:22:41Z</time>
      </trkpt>
      <trkpt lat="45.92722" lon="4.59333">
        <ele>350</ele>
        <time>2022-09-04T06:24:42Z</time>
      </trkpt>
      <trkpt lat="45.92756" lon="4.59335">
        <ele>352</ele>
        <time>2022-09-04T06:25:28Z</time>
      </trkpt>
      <trkpt lat="45.92751" lon="4.5935">
        <ele>356</ele>
        <time>2022-09-04T06:25:43Z</time>
      </trkpt>
      <trkpt lat="45.92726" lon="4.59366">
        <ele>357</ele>
        <time>2022-09-04T06:26:20Z</time>
      </trkpt>
      <trkpt lat="45.92695" lon="4.59378">
        <ele>355</ele>
        <time>2022-09-04T06:27:02Z</time>
      </trkpt>
      <trkpt lat="45.92682" lon="4.59391">
        <ele>356</ele>
        <time>2022-09-04T06:27:24Z</time>
      </trkpt>
      <trkpt lat="45.92669" lon="4.59407">
        <ele>356</ele>
        <time>2022-09-04T06:27:46Z</time>
      </trkpt>
      <trkpt lat="45.92644" lon="4.59456">
        <ele>360</ele>
        <time>2022-09-04T06:28:43Z</time>
      </trkpt>
      <trkpt lat="45.92645" lon="4.59458">
        <ele>360</ele>
        <time>2022-09-04T06:28:45Z</time>
      </trkpt>
      <trkpt lat="45.92646" lon="4.59454">
        <ele>360</ele>
        <time>2022-09-04T06:28:49Z</time>
      </trkpt>
      <trkpt lat="45.92622" lon="4.59471">
        <ele>361</ele>
        <time>2022-09-04T06:29:25Z</time>
      </trkpt>
      <trkpt lat="45.92597" lon="4.5948">
        <ele>362</ele>
        <time>2022-09-04T06:29:59Z</time>
      </trkpt>
      <trkpt lat="45.92564" lon="4.59471">
        <ele>361</ele>
        <time>2022-09-04T06:30:44Z</time>
      </trkpt>
      <trkpt lat="45.92543" lon="4.59461">
        <ele>361</ele>
        <time>2022-09-04T06:31:13Z</time>
      </trkpt>
      <trkpt lat="45.92506" lon="4.59452">
        <ele>360</ele>
        <time>2022-09-04T06:32:04Z</time>
      </trkpt>
      <trkpt lat="45.9248" lon="4.59453">
        <ele>362</ele>
        <time>2022-09-04T06:32:38Z</time>
      </trkpt>
      <trkpt lat="45.92436" lon="4.59438">
        <ele>363</ele>
        <time>2022-09-04T06:33:39Z</time>
      </trkpt>
      <trkpt lat="45.92395" lon="4.59418">
        <ele>362</ele>
        <time>2022-09-04T06:34:36Z</time>
      </trkpt>
      <trkpt lat="45.92373" lon="4.59417">
        <ele>363</ele>
        <time>2022-09-04T06:35:06Z</time>
      </trkpt>
      <trkpt lat="45.92353" lon="4.59413">
        <ele>364</ele>
        <time>2022-09-04T06:35:33Z</time>
      </trkpt>
      <trkpt lat="45.92154" lon="4.59445">
        <ele>363</ele>
        <time>2022-09-04T06:40:00Z</time>
      </trkpt>
      <trkpt lat="45.92137" lon="4.59464">
        <ele>364</ele>
        <time>2022-09-04T06:40:29Z</time>
      </trkpt>
      <trkpt lat="45.92126" lon="4.5948">
        <ele>365</ele>
        <time>2022-09-04T06:40:50Z</time>
      </trkpt>
      <trkpt lat="45.9212" lon="4.59517">
        <ele>367</ele>
        <time>2022-09-04T06:41:25Z</time>
      </trkpt>
      <trkpt lat="45.92112" lon="4.59608">
        <ele>372</ele>
        <time>2022-09-04T06:42:50Z</time>
      </trkpt>
      <trkpt lat="45.92105" lon="4.59626">
        <ele>373</ele>
        <time>2022-09-04T06:43:09Z</time>
      </trkpt>
      <trkpt lat="45.92102" lon="4.59653">
        <ele>375</ele>
        <time>2022-09-04T06:43:34Z</time>
      </trkpt>
      <trkpt lat="45.92094" lon="4.5969">
        <ele>377</ele>
        <time>2022-09-04T06:44:10Z</time>
      </trkpt>
      <trkpt lat="45.92096" lon="4.59713">
        <ele>379</ele>
        <time>2022-09-04T06:44:32Z</time>
      </trkpt>
      <trkpt lat="45.92098" lon="4.59725">
        <ele>380</ele>
        <time>2022-09-04T06:44:43Z</time>
      </trkpt>
      <trkpt lat="45.9215" lon="4.59823">
        <ele>383</ele>
        <time>2022-09-04T06:46:38Z</time>
      </trkpt>
      <trkpt lat="45.92163" lon="4.59879">
        <ele>381</ele>
        <time>2022-09-04T06:47:33Z</time>
      </trkpt>
      <trkpt lat="45.9218" lon="4.59919">
        <ele>380</ele>
        <time>2022-09-04T06:48:16Z</time>
      </trkpt>
      <trkpt lat="45.92186" lon="4.59951">
        <ele>381</ele>
        <time>2022-09-04T06:48:47Z</time>
      </trkpt>
      <trkpt lat="45.92186" lon="4.59993">
        <ele>382</ele>
        <time>2022-09-04T06:49:26Z</time>
      </trkpt>
      <trkpt lat="45.92176" lon="4.60026">
        <ele>384</ele>
        <time>2022-09-04T06:49:59Z</time>
      </trkpt>
      <trkpt lat="45.9216" lon="4.60044">
        <ele>386</ele>
        <time>2022-09-04T06:50:26Z</time>
      </trkpt>
      <trkpt lat="45.92137" lon="4.60054">
        <ele>386</ele>
        <time>2022-09-04T06:50:58Z</time>
      </trkpt>
      <trkpt lat="45.9209" lon="4.60064">
        <ele>384</ele>
        <time>2022-09-04T06:52:02Z</time>
      </trkpt>
      <trkpt lat="45.92078" lon="4.60072">
        <ele>385</ele>
        <time>2022-09-04T06:52:20Z</time>
      </trkpt>
      <trkpt lat="45.92069" lon="4.60084">
        <ele>386</ele>
        <time>2022-09-04T06:52:36Z</time>
      </trkpt>
      <trkpt lat="45.92056" lon="4.60109">
        <ele>386</ele>
        <time>2022-09-04T06:53:05Z</time>
      </trkpt>
      <trkpt lat="45.9205" lon="4.60131">
        <ele>386</ele>
        <time>2022-09-04T06:53:27Z</time>
      </trkpt>
      <trkpt lat="45.92048" lon="4.60158">
        <ele>386</ele>
        <time>2022-09-04T06:53:52Z</time>
      </trkpt>
      <trkpt lat="45.92052" lon="4.6018">
        <ele>385</ele>
        <time>2022-09-04T06:54:13Z</time>
      </trkpt>
      <trkpt lat="45.92058" lon="4.60197">
        <ele>385</ele>
        <time>2022-09-04T06:54:31Z</time>
      </trkpt>
      <trkpt lat="45.92149" lon="4.60321">
        <ele>390</ele>
        <time>2022-09-04T06:57:18Z</time>
      </trkpt>
      <trkpt lat="45.92181" lon="4.6037">
        <ele>392</ele>
        <time>2022-09-04T06:58:21Z</time>
      </trkpt>
      <trkpt lat="45.92187" lon="4.60393">
        <ele>391</ele>
        <time>2022-09-04T06:58:43Z</time>
      </trkpt>
      <trkpt lat="45.92269" lon="4.60475">
        <ele>398</ele>
        <time>2022-09-04T07:00:57Z</time>
      </trkpt>
      <trkpt lat="45.92329" lon="4.60524">
        <ele>404</ele>
        <time>2022-09-04T07:02:29Z</time>
      </trkpt>
      <trkpt lat="45.92345" lon="4.60541">
        <ele>405</ele>
        <time>2022-09-04T07:02:55Z</time>
      </trkpt>
      <trkpt lat="45.92368" lon="4.60592">
        <ele>406</ele>
        <time>2022-09-04T07:03:52Z</time>
      </trkpt>
      <trkpt lat="45.92383" lon="4.60656">
        <ele>408</ele>
        <time>2022-09-04T07:04:54Z</time>
      </trkpt>
      <trkpt lat="45.92408" lon="4.6072">
        <ele>409</ele>
        <time>2022-09-04T07:06:03Z</time>
      </trkpt>
      <trkpt lat="45.92417" lon="4.60737">
        <ele>408</ele>
        <time>2022-09-04T07:06:22Z</time>
      </trkpt>
      <trkpt lat="45.92441" lon="4.60764">
        <ele>410</ele>
        <time>2022-09-04T07:07:03Z</time>
      </trkpt>
      <trkpt lat="45.92446" lon="4.60765">
        <ele>411</ele>
        <time>2022-09-04T07:07:10Z</time>
      </trkpt>
      <trkpt lat="45.92452" lon="4.60757">
        <ele>412</ele>
        <time>2022-09-04T07:07:21Z</time>
      </trkpt>
      <trkpt lat="45.92453" lon="4.60736">
        <ele>413</ele>
        <time>2022-09-04T07:07:40Z</time>
      </trkpt>
      <trkpt lat="45.92479" lon="4.60689">
        <ele>418</ele>
        <time>2022-09-04T07:08:36Z</time>
      </trkpt>
      <trkpt lat="45.9252" lon="4.60658">
        <ele>423</ele>
        <time>2022-09-04T07:09:38Z</time>
      </trkpt>
      <trkpt lat="45.92541" lon="4.60625">
        <ele>426</ele>
        <time>2022-09-04T07:10:19Z</time>
      </trkpt>
      <trkpt lat="45.92551" lon="4.60595">
        <ele>429</ele>
        <time>2022-09-04T07:10:50Z</time>
      </trkpt>
      <trkpt lat="45.92606" lon="4.6053">
        <ele>436</ele>
        <time>2022-09-04T07:12:25Z</time>
      </trkpt>
      <trkpt lat="45.92632" lon="4.60494">
        <ele>440</ele>
        <time>2022-09-04T07:13:13Z</time>
      </trkpt>
      <trkpt lat="45.92683" lon="4.60441">
        <ele>447</ele>
        <time>2022-09-04T07:14:37Z</time>
      </trkpt>
      <trkpt lat="45.92714" lon="4.60419">
        <ele>451</ele>
        <time>2022-09-04T07:15:23Z</time>
      </trkpt>
      <trkpt lat="45.92746" lon="4.60371">
        <ele>453</ele>
        <time>2022-09-04T07:16:25Z</time>
      </trkpt>
      <trkpt lat="45.92771" lon="4.60345">
        <ele>455</ele>
        <time>2022-09-04T07:17:06Z</time>
      </trkpt>
      <trkpt lat="45.92833" lon="4.60328">
        <ele>460</ele>
        <time>2022-09-04T07:18:31Z</time>
      </trkpt>
      <trkpt lat="45.92846" lon="4.60355">
        <ele>461</ele>
        <time>2022-09-04T07:19:01Z</time>
      </trkpt>
      <trkpt lat="45.92886" lon="4.60388">
        <ele>465</ele>
        <time>2022-09-04T07:20:03Z</time>
      </trkpt>
      <trkpt lat="45.92903" lon="4.60407">
        <ele>467</ele>
        <time>2022-09-04T07:20:31Z</time>
      </trkpt>
      <trkpt lat="45.92955" lon="4.60443">
        <ele>479</ele>
        <time>2022-09-04T07:21:48Z</time>
      </trkpt>
      <trkpt lat="45.9299" lon="4.60472">
        <ele>486</ele>
        <time>2022-09-04T07:22:42Z</time>
      </trkpt>
      <trkpt lat="45.93025" lon="4.60497">
        <ele>493</ele>
        <time>2022-09-04T07:23:34Z</time>
      </trkpt>
      <trkpt lat="45.93051" lon="4.60522">
        <ele>499</ele>
        <time>2022-09-04T07:24:16Z</time>
      </trkpt>
      <trkpt lat="45.93067" lon="4.60533">
        <ele>502</ele>
        <time>2022-09-04T07:24:40Z</time>
      </trkpt>
      <trkpt lat="45.93087" lon="4.60563">
        <ele>504</ele>
        <time>2022-09-04T07:25:18Z</time>
      </trkpt>
      <trkpt lat="45.93095" lon="4.60568">
        <ele>503</ele>
        <time>2022-09-04T07:25:30Z</time>
      </trkpt>
      <trkpt lat="45.93108" lon="4.60539">
        <ele>506</ele>
        <time>2022-09-04T07:26:02Z</time>
      </trkpt>
      <trkpt lat="45.93149" lon="4.60555">
        <ele>505</ele>
        <time>2022-09-04T07:26:59Z</time>
      </trkpt>
      <trkpt lat="45.93177" lon="4.6056">
        <ele>503</ele>
        <time>2022-09-04T07:27:36Z</time>
      </trkpt>
      <trkpt lat="45.93203" lon="4.6058">
        <ele>499</ele>
        <time>2022-09-04T07:28:16Z</time>
      </trkpt>
      <trkpt lat="45.93229" lon="4.60593">
        <ele>495</ele>
        <time>2022-09-04T07:28:53Z</time>
      </trkpt>
      <trkpt lat="45.93269" lon="4.6062">
        <ele>488</ele>
        <time>2022-09-04T07:29:51Z</time>
      </trkpt>
      <trkpt lat="45.93311" lon="4.60571">
        <ele>487</ele>
        <time>2022-09-04T07:31:04Z</time>
      </trkpt>
      <trkpt lat="45.93334" lon="4.60565">
        <ele>485</ele>
        <time>2022-09-04T07:31:35Z</time>
      </trkpt>
      <trkpt lat="45.93338" lon="4.60568">
        <ele>484</ele>
        <time>2022-09-04T07:31:41Z</time>
      </trkpt>
      <trkpt lat="45.93332" lon="4.6057">
        <ele>485</ele>
        <time>2022-09-04T07:31:49Z</time>
      </trkpt>
      <trkpt lat="45.93334" lon="4.60566">
        <ele>485</ele>
        <time>2022-09-04T07:31:54Z</time>
      </trkpt>
      <trkpt lat="45.93427" lon="4.60597">
        <ele>469</ele>
        <time>2022-09-04T07:34:01Z</time>
      </trkpt>
      <trkpt lat="45.93482" lon="4.6061">
        <ele>462</ele>
        <time>2022-09-04T07:35:15Z</time>
      </trkpt>
      <trkpt lat="45.93515" lon="4.60611">
        <ele>459</ele>
        <time>2022-09-04T07:35:59Z</time>
      </trkpt>
      <trkpt lat="45.93547" lon="4.60618">
        <ele>454</ele>
        <time>2022-09-04T07:36:43Z</time>
      </trkpt>
      <trkpt lat="45.93588" lon="4.60623">
        <ele>450</ele>
        <time>2022-09-04T07:37:38Z</time>
      </trkpt>
      <trkpt lat="45.9359" lon="4.60627">
        <ele>449</ele>
        <time>2022-09-04T07:37:42Z</time>
      </trkpt>
      <trkpt lat="45.93585" lon="4.60642">
        <ele>448</ele>
        <time>2022-09-04T07:37:58Z</time>
      </trkpt>
      <trkpt lat="45.93542" lon="4.60713">
        <ele>444</ele>
        <time>2022-09-04T07:39:25Z</time>
      </trkpt>
      <trkpt lat="45.93522" lon="4.60779">
        <ele>439</ele>
        <time>2022-09-04T07:40:32Z</time>
      </trkpt>
      <trkpt lat="45.93505" lon="4.60853">
        <ele>436</ele>
        <time>2022-09-04T07:41:44Z</time>
      </trkpt>
      <trkpt lat="45.93488" lon="4.60976">
        <ele>438</ele>
        <time>2022-09-04T07:43:41Z</time>
      </trkpt>
      <trkpt lat="45.93466" lon="4.61024">
        <ele>437</ele>
        <time>2022-09-04T07:44:34Z</time>
      </trkpt>
      <trkpt lat="45.93454" lon="4.61039">
        <ele>437</ele>
        <time>2022-09-04T07:44:55Z</time>
      </trkpt>
      <trkpt lat="45.93417" lon="4.61066">
        <ele>440</ele>
        <time>2022-09-04T07:45:50Z</time>
      </trkpt>
      <trkpt lat="45.93401" lon="4.61073">
        <ele>440</ele>
        <time>2022-09-04T07:46:13Z</time>
      </trkpt>
      <trkpt lat="45.9338" lon="4.61078">
        <ele>440</ele>
        <time>2022-09-04T07:46:41Z</time>
      </trkpt>
      <trkpt lat="45.93341" lon="4.61102">
        <ele>437</ele>
        <time>2022-09-04T07:47:38Z</time>
      </trkpt>
      <trkpt lat="45.93318" lon="4.61112">
        <ele>436</ele>
        <time>2022-09-04T07:48:10Z</time>
      </trkpt>
      <trkpt lat="45.93244" lon="4.61159">
        <ele>430</ele>
        <time>2022-09-04T07:49:58Z</time>
      </trkpt>
      <trkpt lat="45.93141" lon="4.61186">
        <ele>431</ele>
        <time>2022-09-04T07:52:18Z</time>
      </trkpt>
      <trkpt lat="45.93106" lon="4.61205">
        <ele>429</ele>
        <time>2022-09-04T07:53:07Z</time>
      </trkpt>
      <trkpt lat="45.93053" lon="4.6124">
        <ele>428</ele>
        <time>2022-09-04T07:54:25Z</time>
      </trkpt>
      <trkpt lat="45.92998" lon="4.61308">
        <ele>423</ele>
        <time>2022-09-04T07:56:02Z</time>
      </trkpt>
      <trkpt lat="45.92977" lon="4.61325">
        <ele>423</ele>
        <time>2022-09-04T07:56:34Z</time>
      </trkpt>
      <trkpt lat="45.93014" lon="4.61327">
        <ele>420</ele>
        <time>2022-09-04T07:57:24Z</time>
      </trkpt>
      <trkpt lat="45.93033" lon="4.61348">
        <ele>415</ele>
        <time>2022-09-04T07:57:56Z</time>
      </trkpt>
      <trkpt lat="45.93045" lon="4.61355">
        <ele>413</ele>
        <time>2022-09-04T07:58:13Z</time>
      </trkpt>
      <trkpt lat="45.93069" lon="4.61361">
        <ele>409</ele>
        <time>2022-09-04T07:58:45Z</time>
      </trkpt>
      <trkpt lat="45.93088" lon="4.61358">
        <ele>408</ele>
        <time>2022-09-04T07:59:11Z</time>
      </trkpt>
      <trkpt lat="45.93103" lon="4.61352">
        <ele>408</ele>
        <time>2022-09-04T07:59:32Z</time>
      </trkpt>
      <trkpt lat="45.93126" lon="4.61349">
        <ele>407</ele>
        <time>2022-09-04T08:00:03Z</time>
      </trkpt>
      <trkpt lat="45.93141" lon="4.61344">
        <ele>406</ele>
        <time>2022-09-04T08:00:23Z</time>
      </trkpt>
      <trkpt lat="45.93204" lon="4.61332">
        <ele>405</ele>
        <time>2022-09-04T08:01:48Z</time>
      </trkpt>
      <trkpt lat="45.9331" lon="4.61321">
        <ele>402</ele>
        <time>2022-09-04T08:04:10Z</time>
      </trkpt>
      <trkpt lat="45.93288" lon="4.61366">
        <ele>395</ele>
        <time>2022-09-04T08:05:01Z</time>
      </trkpt>
      <trkpt lat="45.93272" lon="4.61389">
        <ele>393</ele>
        <time>2022-09-04T08:05:31Z</time>
      </trkpt>
      <trkpt lat="45.93212" lon="4.6146">
        <ele>387</ele>
        <time>2022-09-04T08:07:15Z</time>
      </trkpt>
      <trkpt lat="45.93177" lon="4.6148">
        <ele>388</ele>
        <time>2022-09-04T08:08:05Z</time>
      </trkpt>
      <trkpt lat="45.93185" lon="4.61483">
        <ele>387</ele>
        <time>2022-09-04T08:08:16Z</time>
      </trkpt>
      <trkpt lat="45.93212" lon="4.61471">
        <ele>386</ele>
        <time>2022-09-04T08:08:54Z</time>
      </trkpt>
      <trkpt lat="45.93245" lon="4.6146">
        <ele>386</ele>
        <time>2022-09-04T08:09:39Z</time>
      </trkpt>
      <trkpt lat="45.93288" lon="4.61438">
        <ele>383</ele>
        <time>2022-09-04T08:10:40Z</time>
      </trkpt>
      <trkpt lat="45.93355" lon="4.61417">
        <ele>379</ele>
        <time>2022-09-04T08:12:11Z</time>
      </trkpt>
      <trkpt lat="45.93371" lon="4.61414">
        <ele>379</ele>
        <time>2022-09-04T08:12:33Z</time>
      </trkpt>
      <trkpt lat="45.93405" lon="4.61396">
        <ele>381</ele>
        <time>2022-09-04T08:13:21Z</time>
      </trkpt>
      <trkpt lat="45.93456" lon="4.61385">
        <ele>380</ele>
        <time>2022-09-04T08:14:30Z</time>
      </trkpt>
      <trkpt lat="45.93475" lon="4.61387">
        <ele>379</ele>
        <time>2022-09-04T08:14:55Z</time>
      </trkpt>
      <trkpt lat="45.93498" lon="4.61407">
        <ele>374</ele>
        <time>2022-09-04T08:15:31Z</time>
      </trkpt>
      <trkpt lat="45.93507" lon="4.61431">
        <ele>374</ele>
        <time>2022-09-04T08:15:57Z</time>
      </trkpt>
      <trkpt lat="45.93514" lon="4.61461">
        <ele>377</ele>
        <time>2022-09-04T08:16:26Z</time>
      </trkpt>
      <trkpt lat="45.93514" lon="4.61495">
        <ele>378</ele>
        <time>2022-09-04T08:16:57Z</time>
      </trkpt>
      <trkpt lat="45.93496" lon="4.61536">
        <ele>379</ele>
        <time>2022-09-04T08:17:42Z</time>
      </trkpt>
      <trkpt lat="45.93459" lon="4.61596">
        <ele>376</ele>
        <time>2022-09-04T08:18:57Z</time>
      </trkpt>
      <trkpt lat="45.93448" lon="4.61634">
        <ele>376</ele>
        <time>2022-09-04T08:19:35Z</time>
      </trkpt>
      <trkpt lat="45.93445" lon="4.6168">
        <ele>377</ele>
        <time>2022-09-04T08:20:18Z</time>
      </trkpt>
      <trkpt lat="45.93454" lon="4.61722">
        <ele>380</ele>
        <time>2022-09-04T08:20:59Z</time>
      </trkpt>
      <trkpt lat="45.93489" lon="4.61841">
        <ele>385</ele>
        <time>2022-09-04T08:22:59Z</time>
      </trkpt>
      <trkpt lat="45.93506" lon="4.61851">
        <ele>387</ele>
        <time>2022-09-04T08:23:23Z</time>
      </trkpt>
      <trkpt lat="45.93521" lon="4.61875">
        <ele>389</ele>
        <time>2022-09-04T08:23:53Z</time>
      </trkpt>
      <trkpt lat="45.93541" lon="4.61876">
        <ele>392</ele>
        <time>2022-09-04T08:24:20Z</time>
      </trkpt>
      <trkpt lat="45.93564" lon="4.61869">
        <ele>395</ele>
        <time>2022-09-04T08:24:51Z</time>
      </trkpt>
      <trkpt lat="45.93601" lon="4.61852">
        <ele>401</ele>
        <time>2022-09-04T08:25:43Z</time>
      </trkpt>
      <trkpt lat="45.93664" lon="4.6184">
        <ele>411</ele>
        <time>2022-09-04T08:27:08Z</time>
      </trkpt>
      <trkpt lat="45.93679" lon="4.61834">
        <ele>413</ele>
        <time>2022-09-04T08:27:29Z</time>
      </trkpt>
      <trkpt lat="45.93746" lon="4.61825">
        <ele>419</ele>
        <time>2022-09-04T08:28:58Z</time>
      </trkpt>
      <trkpt lat="45.93772" lon="4.61828">
        <ele>423</ele>
        <time>2022-09-04T08:29:33Z</time>
      </trkpt>
      <trkpt lat="45.93799" lon="4.61825">
        <ele>427</ele>
        <time>2022-09-04T08:30:09Z</time>
      </trkpt>
      <trkpt lat="45.93885" lon="4.61789">
        <ele>441</ele>
        <time>2022-09-04T08:32:09Z</time>
      </trkpt>
      <trkpt lat="45.93862" lon="4.61737">
        <ele>439</ele>
        <time>2022-09-04T08:33:06Z</time>
      </trkpt>
      <trkpt lat="45.93856" lon="4.61702">
        <ele>439</ele>
        <time>2022-09-04T08:33:40Z</time>
      </trkpt>
      <trkpt lat="45.93852" lon="4.61636">
        <ele>440</ele>
        <time>2022-09-04T08:34:41Z</time>
      </trkpt>
      <trkpt lat="45.93887" lon="4.61608">
        <ele>444</ele>
        <time>2022-09-04T08:35:34Z</time>
      </trkpt>
      <trkpt lat="45.93922" lon="4.61592">
        <ele>449</ele>
        <time>2022-09-04T08:36:23Z</time>
      </trkpt>
      <trkpt lat="45.93935" lon="4.61593">
        <ele>451</ele>
        <time>2022-09-04T08:36:41Z</time>
      </trkpt>
      <trkpt lat="45.9393" lon="4.61591">
        <ele>450</ele>
        <time>2022-09-04T08:36:48Z</time>
      </trkpt>
      <trkpt lat="45.93946" lon="4.6161">
        <ele>453</ele>
        <time>2022-09-04T08:37:15Z</time>
      </trkpt>
      <trkpt lat="45.93967" lon="4.61626">
        <ele>457</ele>
        <time>2022-09-04T08:37:47Z</time>
      </trkpt>
      <trkpt lat="45.93983" lon="4.61646">
        <ele>460</ele>
        <time>2022-09-04T08:38:15Z</time>
      </trkpt>
      <trkpt lat="45.93998" lon="4.61675">
        <ele>463</ele>
        <time>2022-09-04T08:38:49Z</time>
      </trkpt>
      <trkpt lat="45.94003" lon="4.61691">
        <ele>463</ele>
        <time>2022-09-04T08:39:05Z</time>
      </trkpt>
      <trkpt lat="45.94028" lon="4.61732">
        <ele>463</ele>
        <time>2022-09-04T08:39:56Z</time>
      </trkpt>
      <trkpt lat="45.94039" lon="4.61744">
        <ele>464</ele>
        <time>2022-09-04T08:40:14Z</time>
      </trkpt>
      <trkpt lat="45.9405" lon="4.61764">
        <ele>462</ele>
        <time>2022-09-04T08:40:38Z</time>
      </trkpt>
      <trkpt lat="45.94067" lon="4.61783">
        <ele>461</ele>
        <time>2022-09-04T08:41:07Z</time>
      </trkpt>
      <trkpt lat="45.94098" lon="4.61804">
        <ele>459</ele>
        <time>2022-09-04T08:41:52Z</time>
      </trkpt>
      <trkpt lat="45.9412" lon="4.61808">
        <ele>458</ele>
        <time>2022-09-04T08:42:22Z</time>
      </trkpt>
      <trkpt lat="45.94125" lon="4.61806">
        <ele>458</ele>
        <time>2022-09-04T08:42:29Z</time>
      </trkpt>
      <trkpt lat="45.94127" lon="4.61792">
        <ele>460</ele>
        <time>2022-09-04T08:42:42Z</time>
      </trkpt>
      <trkpt lat="45.94132" lon="4.61785">
        <ele>461</ele>
        <time>2022-09-04T08:42:52Z</time>
      </trkpt>
      <trkpt lat="45.94144" lon="4.61782">
        <ele>461</ele>
        <time>2022-09-04T08:43:08Z</time>
      </trkpt>
      <trkpt lat="45.94299" lon="4.618">
        <ele>465</ele>
        <time>2022-09-04T08:46:35Z</time>
      </trkpt>
      <trkpt lat="45.94302" lon="4.61798">
        <ele>465</ele>
        <time>2022-09-04T08:46:40Z</time>
      </trkpt>
      <trkpt lat="45.94313" lon="4.61757">
        <ele>472</ele>
        <time>2022-09-04T08:47:21Z</time>
      </trkpt>
      <trkpt lat="45.94319" lon="4.61746">
        <ele>474</ele>
        <time>2022-09-04T08:47:33Z</time>
      </trkpt>
      <trkpt lat="45.94344" lon="4.61746">
        <ele>476</ele>
        <time>2022-09-04T08:48:07Z</time>
      </trkpt>
      <trkpt lat="45.94357" lon="4.61738">
        <ele>478</ele>
        <time>2022-09-04T08:48:26Z</time>
      </trkpt>
      <trkpt lat="45.94395" lon="4.61735">
        <ele>481</ele>
        <time>2022-09-04T08:49:17Z</time>
      </trkpt>
      <trkpt lat="45.94461" lon="4.61746">
        <ele>478</ele>
        <time>2022-09-04T08:50:45Z</time>
      </trkpt>
      <trkpt lat="45.94498" lon="4.61731">
        <ele>479</ele>
        <time>2022-09-04T08:51:36Z</time>
      </trkpt>
      <trkpt lat="45.94604" lon="4.61676">
        <ele>479</ele>
        <time>2022-09-04T08:54:07Z</time>
      </trkpt>
      <trkpt lat="45.94623" lon="4.6167">
        <ele>480</ele>
        <time>2022-09-04T08:54:33Z</time>
      </trkpt>
      <trkpt lat="45.94634" lon="4.61662">
        <ele>481</ele>
        <time>2022-09-04T08:54:49Z</time>
      </trkpt>
      <trkpt lat="45.94671" lon="4.61647">
        <ele>483</ele>
        <time>2022-09-04T08:55:41Z</time>
      </trkpt>
      <trkpt lat="45.94684" lon="4.61645">
        <ele>483</ele>
        <time>2022-09-04T08:55:58Z</time>
      </trkpt>
      <trkpt lat="45.94731" lon="4.61624">
        <ele>484</ele>
        <time>2022-09-04T08:57:04Z</time>
      </trkpt>
      <trkpt lat="45.94773" lon="4.61612">
        <ele>485</ele>
        <time>2022-09-04T08:58:01Z</time>
      </trkpt>
      <trkpt lat="45.94786" lon="4.61605">
        <ele>486</ele>
        <time>2022-09-04T08:58:19Z</time>
      </trkpt>
      <trkpt lat="45.94845" lon="4.61605">
        <ele>486</ele>
        <time>2022-09-04T08:59:38Z</time>
      </trkpt>
      <trkpt lat="45.94935" lon="4.61667">
        <ele>476</ele>
        <time>2022-09-04T09:01:51Z</time>
      </trkpt>
      <trkpt lat="45.95001" lon="4.61667">
        <ele>473</ele>
        <time>2022-09-04T09:03:19Z</time>
      </trkpt>
      <trkpt lat="45.95042" lon="4.61655">
        <ele>469</ele>
        <time>2022-09-04T09:04:15Z</time>
      </trkpt>
      <trkpt lat="45.95062" lon="4.61652">
        <ele>467</ele>
        <time>2022-09-04T09:04:42Z</time>
      </trkpt>
      <trkpt lat="45.95085" lon="4.61624">
        <ele>465</ele>
        <time>2022-09-04T09:05:22Z</time>
      </trkpt>
      <trkpt lat="45.95111" lon="4.61585">
        <ele>464</ele>
        <time>2022-09-04T09:06:12Z</time>
      </trkpt>
      <trkpt lat="45.95208" lon="4.61582">
        <ele>449</ele>
        <time>2022-09-04T09:08:22Z</time>
      </trkpt>
      <trkpt lat="45.95242" lon="4.6155">
        <ele>448</ele>
        <time>2022-09-04T09:09:16Z</time>
      </trkpt>
      <trkpt lat="45.9529" lon="4.61541">
        <ele>446</ele>
        <time>2022-09-04T09:10:21Z</time>
      </trkpt>
      <trkpt lat="45.95332" lon="4.61528">
        <ele>446</ele>
        <time>2022-09-04T09:11:18Z</time>
      </trkpt>
      <trkpt lat="45.95369" lon="4.61522">
        <ele>444</ele>
        <time>2022-09-04T09:12:08Z</time>
      </trkpt>
      <trkpt lat="45.95416" lon="4.61501">
        <ele>444</ele>
        <time>2022-09-04T09:13:13Z</time>
      </trkpt>
      <trkpt lat="45.95451" lon="4.6148">
        <ele>444</ele>
        <time>2022-09-04T09:14:04Z</time>
      </trkpt>
      <trkpt lat="45.95464" lon="4.61476">
        <ele>443</ele>
        <time>2022-09-04T09:14:22Z</time>
      </trkpt>
      <trkpt lat="45.95489" lon="4.6146">
        <ele>442</ele>
        <time>2022-09-04T09:14:58Z</time>
      </trkpt>
      <trkpt lat="45.95534" lon="4.61418">
        <ele>436</ele>
        <time>2022-09-04T09:16:10Z</time>
      </trkpt>
      <trkpt lat="45.95545" lon="4.61387">
        <ele>431</ele>
        <time>2022-09-04T09:16:42Z</time>
      </trkpt>
      <trkpt lat="45.95542" lon="4.6137">
        <ele>431</ele>
        <time>2022-09-04T09:16:58Z</time>
      </trkpt>
      <trkpt lat="45.95514" lon="4.61292">
        <ele>432</ele>
        <time>2022-09-04T09:18:20Z</time>
      </trkpt>
      <trkpt lat="45.95495" lon="4.61257">
        <ele>432</ele>
        <time>2022-09-04T09:19:01Z</time>
      </trkpt>
      <trkpt lat="45.95482" lon="4.61205">
        <ele>432</ele>
        <time>2022-09-04T09:19:52Z</time>
      </trkpt>
      <trkpt lat="45.95487" lon="4.6112">
        <ele>429</ele>
        <time>2022-09-04T09:21:11Z</time>
      </trkpt>
      <trkpt lat="45.95477" lon="4.61055">
        <ele>434</ele>
        <time>2022-09-04T09:22:13Z</time>
      </trkpt>
      <trkpt lat="45.95469" lon="4.60947">
        <ele>438</ele>
        <time>2022-09-04T09:23:54Z</time>
      </trkpt>
      <trkpt lat="45.95479" lon="4.60896">
        <ele>437</ele>
        <time>2022-09-04T09:24:43Z</time>
      </trkpt>
      <trkpt lat="45.95491" lon="4.60857">
        <ele>436</ele>
        <time>2022-09-04T09:25:23Z</time>
      </trkpt>
      <trkpt lat="45.95513" lon="4.60811">
        <ele>437</ele>
        <time>2022-09-04T09:26:14Z</time>
      </trkpt>
      <trkpt lat="45.9553" lon="4.60788">
        <ele>438</ele>
        <time>2022-09-04T09:26:46Z</time>
      </trkpt>
      <trkpt lat="45.9555" lon="4.60777">
        <ele>438</ele>
        <time>2022-09-04T09:27:14Z</time>
      </trkpt>
      <trkpt lat="45.9558" lon="4.60771">
        <ele>437</ele>
        <time>2022-09-04T09:27:55Z</time>
      </trkpt>
      <trkpt lat="45.95601" lon="4.6077">
        <ele>437</ele>
        <time>2022-09-04T09:28:23Z</time>
      </trkpt>
      <trkpt lat="45.95673" lon="4.60773">
        <ele>437</ele>
        <time>2022-09-04T09:29:59Z</time>
      </trkpt>
      <trkpt lat="45.95784" lon="4.60789">
        <ele>438</ele>
        <time>2022-09-04T09:32:28Z</time>
      </trkpt>
      <trkpt lat="45.95805" lon="4.60795">
        <ele>437</ele>
        <time>2022-09-04T09:32:56Z</time>
      </trkpt>
      <trkpt lat="45.95869" lon="4.60807">
        <ele>437</ele>
        <time>2022-09-04T09:34:22Z</time>
      </trkpt>
      <trkpt lat="45.95918" lon="4.60829">
        <ele>434</ele>
        <time>2022-09-04T09:35:31Z</time>
      </trkpt>
      <trkpt lat="45.95938" lon="4.60848">
        <ele>431</ele>
        <time>2022-09-04T09:36:03Z</time>
      </trkpt>
      <trkpt lat="45.95953" lon="4.60853">
        <ele>430</ele>
        <time>2022-09-04T09:36:23Z</time>
      </trkpt>
      <trkpt lat="45.95972" lon="4.60847">
        <ele>430</ele>
        <time>2022-09-04T09:36:49Z</time>
      </trkpt>
      <trkpt lat="45.95984" lon="4.60795">
        <ele>433</ele>
        <time>2022-09-04T09:37:40Z</time>
      </trkpt>
      <trkpt lat="45.96049" lon="4.60615">
        <ele>438</ele>
        <time>2022-09-04T09:40:48Z</time>
      </trkpt>
      <trkpt lat="45.96053" lon="4.60596">
        <ele>439</ele>
        <time>2022-09-04T09:41:07Z</time>
      </trkpt>
      <trkpt lat="45.96061" lon="4.60578">
        <ele>439</ele>
        <time>2022-09-04T09:41:27Z</time>
      </trkpt>
      <trkpt lat="45.96066" lon="4.60541">
        <ele>441</ele>
        <time>2022-09-04T09:42:01Z</time>
      </trkpt>
      <trkpt lat="45.96068" lon="4.6044">
        <ele>448</ele>
        <time>2022-09-04T09:43:35Z</time>
      </trkpt>
      <trkpt lat="45.96058" lon="4.60349">
        <ele>457</ele>
        <time>2022-09-04T09:45:01Z</time>
      </trkpt>
      <trkpt lat="45.96056" lon="4.60219">
        <ele>465</ele>
        <time>2022-09-04T09:47:01Z</time>
      </trkpt>
      <trkpt lat="45.96058" lon="4.60125">
        <ele>474</ele>
        <time>2022-09-04T09:48:29Z</time>
      </trkpt>
      <trkpt lat="45.96063" lon="4.60119">
        <ele>474</ele>
        <time>2022-09-04T09:48:37Z</time>
      </trkpt>
      <trkpt lat="45.96097" lon="4.60095">
        <ele>474</ele>
        <time>2022-09-04T09:49:28Z</time>
      </trkpt>
      <trkpt lat="45.96125" lon="4.6007">
        <ele>479</ele>
        <time>2022-09-04T09:50:12Z</time>
      </trkpt>
      <trkpt lat="45.96156" lon="4.6007">
        <ele>482</ele>
        <time>2022-09-04T09:50:53Z</time>
      </trkpt>
      <trkpt lat="45.96177" lon="4.60093">
        <ele>481</ele>
        <time>2022-09-04T09:51:28Z</time>
      </trkpt>
      <trkpt lat="45.96186" lon="4.60113">
        <ele>479</ele>
        <time>2022-09-04T09:51:50Z</time>
      </trkpt>
      <trkpt lat="45.96207" lon="4.60143">
        <ele>476</ele>
        <time>2022-09-04T09:52:30Z</time>
      </trkpt>
      <trkpt lat="45.96225" lon="4.60183">
        <ele>470</ele>
        <time>2022-09-04T09:53:14Z</time>
      </trkpt>
      <trkpt lat="45.96236" lon="4.60201">
        <ele>468</ele>
        <time>2022-09-04T09:53:36Z</time>
      </trkpt>
      <trkpt lat="45.96234" lon="4.60212">
        <ele>465</ele>
        <time>2022-09-04T09:53:47Z</time>
      </trkpt>
      <trkpt lat="45.96229" lon="4.60218">
        <ele>463</ele>
        <time>2022-09-04T09:53:56Z</time>
      </trkpt>
      <trkpt lat="45.96216" lon="4.60245">
        <ele>455</ele>
        <time>2022-09-04T09:54:26Z</time>
      </trkpt>
      <trkpt lat="45.96218" lon="4.60254">
        <ele>453</ele>
        <time>2022-09-04T09:54:35Z</time>
      </trkpt>
      <trkpt lat="45.96225" lon="4.60261">
        <ele>453</ele>
        <time>2022-09-04T09:54:46Z</time>
      </trkpt>
      <trkpt lat="45.96238" lon="4.60289">
        <ele>448</ele>
        <time>2022-09-04T09:55:17Z</time>
      </trkpt>
      <trkpt lat="45.96289" lon="4.60322">
        <ele>446</ele>
        <time>2022-09-04T09:56:32Z</time>
      </trkpt>
      <trkpt lat="45.963" lon="4.60317">
        <ele>448</ele>
        <time>2022-09-04T09:56:47Z</time>
      </trkpt>
      <trkpt lat="45.96302" lon="4.60313">
        <ele>449</ele>
        <time>2022-09-04T09:56:52Z</time>
      </trkpt>
      <trkpt lat="45.96302" lon="4.60298">
        <ele>453</ele>
        <time>2022-09-04T09:57:06Z</time>
      </trkpt>
      <trkpt lat="45.96329" lon="4.60286">
        <ele>459</ele>
        <time>2022-09-04T09:57:44Z</time>
      </trkpt>
      <trkpt lat="45.96399" lon="4.60268">
        <ele>465</ele>
        <time>2022-09-04T09:59:19Z</time>
      </trkpt>
      <trkpt lat="45.96426" lon="4.6027">
        <ele>469</ele>
        <time>2022-09-04T09:59:55Z</time>
      </trkpt>
      <trkpt lat="45.96445" lon="4.60274">
        <ele>474</ele>
        <time>2022-09-04T10:00:20Z</time>
      </trkpt>
      <trkpt lat="45.96455" lon="4.60327">
        <ele>471</ele>
        <time>2022-09-04T10:01:11Z</time>
      </trkpt>
      <trkpt lat="45.96456" lon="4.60353">
        <ele>467</ele>
        <time>2022-09-04T10:01:35Z</time>
      </trkpt>
      <trkpt lat="45.9646" lon="4.60361">
        <ele>468</ele>
        <time>2022-09-04T10:01:44Z</time>
      </trkpt>
      <trkpt lat="45.96489" lon="4.60378">
        <ele>477</ele>
        <time>2022-09-04T10:02:26Z</time>
      </trkpt>
      <trkpt lat="45.96538" lon="4.60458">
        <ele>478</ele>
        <time>2022-09-04T10:04:05Z</time>
      </trkpt>
      <trkpt lat="45.96559" lon="4.60485">
        <ele>478</ele>
        <time>2022-09-04T10:04:43Z</time>
      </trkpt>
      <trkpt lat="45.96587" lon="4.60513">
        <ele>478</ele>
        <time>2022-09-04T10:05:28Z</time>
      </trkpt>
      <trkpt lat="45.96595" lon="4.60516">
        <ele>477</ele>
        <time>2022-09-04T10:05:39Z</time>
      </trkpt>
      <trkpt lat="45.96621" lon="4.60509">
        <ele>480</ele>
        <time>2022-09-04T10:06:15Z</time>
      </trkpt>
      <trkpt lat="45.96631" lon="4.60502">
        <ele>482</ele>
        <time>2022-09-04T10:06:29Z</time>
      </trkpt>
      <trkpt lat="45.96652" lon="4.60508">
        <ele>480</ele>
        <time>2022-09-04T10:06:58Z</time>
      </trkpt>
      <trkpt lat="45.96662" lon="4.60506">
        <ele>481</ele>
        <time>2022-09-04T10:07:11Z</time>
      </trkpt>
      <trkpt lat="45.96684" lon="4.60522">
        <ele>473</ele>
        <time>2022-09-04T10:07:44Z</time>
      </trkpt>
      <trkpt lat="45.9669" lon="4.60564">
        <ele>461</ele>
        <time>2022-09-04T10:08:24Z</time>
      </trkpt>
      <trkpt lat="45.96687" lon="4.60578">
        <ele>458</ele>
        <time>2022-09-04T10:08:38Z</time>
      </trkpt>
      <trkpt lat="45.96661" lon="4.60624">
        <ele>451</ele>
        <time>2022-09-04T10:09:33Z</time>
      </trkpt>
      <trkpt lat="45.96689" lon="4.60735">
        <ele>434</ele>
        <time>2022-09-04T10:11:22Z</time>
      </trkpt>
      <trkpt lat="45.96702" lon="4.60762">
        <ele>432</ele>
        <time>2022-09-04T10:11:53Z</time>
      </trkpt>
      <trkpt lat="45.96695" lon="4.60785">
        <ele>432</ele>
        <time>2022-09-04T10:12:16Z</time>
      </trkpt>
      <trkpt lat="45.9671" lon="4.60791">
        <ele>431</ele>
        <time>2022-09-04T10:12:37Z</time>
      </trkpt>
      <trkpt lat="45.96751" lon="4.60707">
        <ele>432</ele>
        <time>2022-09-04T10:14:12Z</time>
      </trkpt>
      <trkpt lat="45.96765" lon="4.60689">
        <ele>432</ele>
        <time>2022-09-04T10:14:37Z</time>
      </trkpt>
      <trkpt lat="45.96782" lon="4.60658">
        <ele>432</ele>
        <time>2022-09-04T10:15:14Z</time>
      </trkpt>
      <trkpt lat="45.96831" lon="4.60583">
        <ele>433</ele>
        <time>2022-09-04T10:16:49Z</time>
      </trkpt>
      <trkpt lat="45.96852" lon="4.60543">
        <ele>433</ele>
        <time>2022-09-04T10:17:36Z</time>
      </trkpt>
      <trkpt lat="45.96856" lon="4.60528">
        <ele>434</ele>
        <time>2022-09-04T10:17:51Z</time>
      </trkpt>
      <trkpt lat="45.96893" lon="4.60443">
        <ele>435</ele>
        <time>2022-09-04T10:19:24Z</time>
      </trkpt>
      <trkpt lat="45.96928" lon="4.60325">
        <ele>442</ele>
        <time>2022-09-04T10:21:23Z</time>
      </trkpt>
      <trkpt lat="45.96938" lon="4.60301">
        <ele>444</ele>
        <time>2022-09-04T10:21:49Z</time>
      </trkpt>
      <trkpt lat="45.96946" lon="4.60255">
        <ele>449</ele>
        <time>2022-09-04T10:22:33Z</time>
      </trkpt>
      <trkpt lat="45.96948" lon="4.60224">
        <ele>454</ele>
        <time>2022-09-04T10:23:01Z</time>
      </trkpt>
      <trkpt lat="45.96973" lon="4.60168">
        <ele>457</ele>
        <time>2022-09-04T10:24:03Z</time>
      </trkpt>
      <trkpt lat="45.97001" lon="4.60128">
        <ele>458</ele>
        <time>2022-09-04T10:24:56Z</time>
      </trkpt>
      <trkpt lat="45.97058" lon="4.60029">
        <ele>468</ele>
        <time>2022-09-04T10:26:55Z</time>
      </trkpt>
      <trkpt lat="45.9708" lon="4.59968">
        <ele>476</ele>
        <time>2022-09-04T10:27:59Z</time>
      </trkpt>
      <trkpt lat="45.97084" lon="4.59962">
        <ele>476</ele>
        <time>2022-09-04T10:28:06Z</time>
      </trkpt>
      <trkpt lat="45.97103" lon="4.59904">
        <ele>482</ele>
        <time>2022-09-04T10:29:06Z</time>
      </trkpt>
      <trkpt lat="45.97107" lon="4.59885">
        <ele>483</ele>
        <time>2022-09-04T10:29:24Z</time>
      </trkpt>
      <trkpt lat="45.97125" lon="4.59834">
        <ele>485</ele>
        <time>2022-09-04T10:30:17Z</time>
      </trkpt>
      <trkpt lat="45.97126" lon="4.59799">
        <ele>490</ele>
        <time>2022-09-04T10:30:50Z</time>
      </trkpt>
      <trkpt lat="45.97141" lon="4.59712">
        <ele>502</ele>
        <time>2022-09-04T10:32:13Z</time>
      </trkpt>
      <trkpt lat="45.9714" lon="4.59704">
        <ele>503</ele>
        <time>2022-09-04T10:32:21Z</time>
      </trkpt>
      <trkpt lat="45.97092" lon="4.59651">
        <ele>508</ele>
        <time>2022-09-04T10:33:41Z</time>
      </trkpt>
      <trkpt lat="45.97091" lon="4.59641">
        <ele>509</ele>
        <time>2022-09-04T10:33:51Z</time>
      </trkpt>
      <trkpt lat="45.97095" lon="4.59634">
        <ele>510</ele>
        <time>2022-09-04T10:33:59Z</time>
      </trkpt>
      <trkpt lat="45.97137" lon="4.59614">
        <ele>514</ele>
        <time>2022-09-04T10:34:58Z</time>
      </trkpt>
      <trkpt lat="45.97169" lon="4.59613">
        <ele>516</ele>
        <time>2022-09-04T10:35:41Z</time>
      </trkpt>
      <trkpt lat="45.97186" lon="4.59634">
        <ele>517</ele>
        <time>2022-09-04T10:36:11Z</time>
      </trkpt>
      <trkpt lat="45.97194" lon="4.5966">
        <ele>516</ele>
        <time>2022-09-04T10:36:37Z</time>
      </trkpt>
      <trkpt lat="45.9723" lon="4.59702">
        <ele>517</ele>
        <time>2022-09-04T10:37:39Z</time>
      </trkpt>
      <trkpt lat="45.97256" lon="4.59772">
        <ele>510</ele>
        <time>2022-09-04T10:38:53Z</time>
      </trkpt>
      <trkpt lat="45.97262" lon="4.598">
        <ele>506</ele>
        <time>2022-09-04T10:39:20Z</time>
      </trkpt>
      <trkpt lat="45.97287" lon="4.59836">
        <ele>505</ele>
        <time>2022-09-04T10:40:07Z</time>
      </trkpt>
      <trkpt lat="45.97298" lon="4.59848">
        <ele>507</ele>
        <time>2022-09-04T10:40:25Z</time>
      </trkpt>
      <trkpt lat="45.97312" lon="4.59879">
        <ele>507</ele>
        <time>2022-09-04T10:41:00Z</time>
      </trkpt>
      <trkpt lat="45.97324" lon="4.59916">
        <ele>506</ele>
        <time>2022-09-04T10:41:38Z</time>
      </trkpt>
      <trkpt lat="45.9735" lon="4.5998">
        <ele>500</ele>
        <time>2022-09-04T10:42:46Z</time>
      </trkpt>
      <trkpt lat="45.97373" lon="4.60014">
        <ele>496</ele>
        <time>2022-09-04T10:43:30Z</time>
      </trkpt>
      <trkpt lat="45.97403" lon="4.60011">
        <ele>498</ele>
        <time>2022-09-04T10:44:10Z</time>
      </trkpt>
      <trkpt lat="45.97405" lon="4.60024">
        <ele>496</ele>
        <time>2022-09-04T10:44:23Z</time>
      </trkpt>
      <trkpt lat="45.97403" lon="4.60048">
        <ele>490</ele>
        <time>2022-09-04T10:44:45Z</time>
      </trkpt>
      <trkpt lat="45.97359" lon="4.60147">
        <ele>467</ele>
        <time>2022-09-04T10:46:34Z</time>
      </trkpt>
      <trkpt lat="45.97392" lon="4.60187">
        <ele>458</ele>
        <time>2022-09-04T10:47:32Z</time>
      </trkpt>
      <trkpt lat="45.97407" lon="4.60194">
        <ele>457</ele>
        <time>2022-09-04T10:47:53Z</time>
      </trkpt>
      <trkpt lat="45.97432" lon="4.60186">
        <ele>456</ele>
        <time>2022-09-04T10:48:27Z</time>
      </trkpt>
      <trkpt lat="45.97442" lon="4.60179">
        <ele>455</ele>
        <time>2022-09-04T10:48:42Z</time>
      </trkpt>
      <trkpt lat="45.97468" lon="4.60167">
        <ele>453</ele>
        <time>2022-09-04T10:49:18Z</time>
      </trkpt>
      <trkpt lat="45.97485" lon="4.60152">
        <ele>452</ele>
        <time>2022-09-04T10:49:45Z</time>
      </trkpt>
      <trkpt lat="45.97501" lon="4.60128">
        <ele>452</ele>
        <time>2022-09-04T10:50:16Z</time>
      </trkpt>
      <trkpt lat="45.97513" lon="4.60094">
        <ele>453</ele>
        <time>2022-09-04T10:50:51Z</time>
      </trkpt>
      <trkpt lat="45.97534" lon="4.60021">
        <ele>458</ele>
        <time>2022-09-04T10:52:04Z</time>
      </trkpt>
      <trkpt lat="45.97539" lon="4.59989">
        <ele>460</ele>
        <time>2022-09-04T10:52:35Z</time>
      </trkpt>
      <trkpt lat="45.97555" lon="4.59934">
        <ele>462</ele>
        <time>2022-09-04T10:53:30Z</time>
      </trkpt>
      <trkpt lat="45.97566" lon="4.59885">
        <ele>464</ele>
        <time>2022-09-04T10:54:18Z</time>
      </trkpt>
      <trkpt lat="45.97569" lon="4.59859">
        <ele>465</ele>
        <time>2022-09-04T10:54:42Z</time>
      </trkpt>
      <trkpt lat="45.97568" lon="4.59836">
        <ele>468</ele>
        <time>2022-09-04T10:55:04Z</time>
      </trkpt>
      <trkpt lat="45.97574" lon="4.59801">
        <ele>470</ele>
        <time>2022-09-04T10:55:37Z</time>
      </trkpt>
      <trkpt lat="45.97586" lon="4.59765">
        <ele>470</ele>
        <time>2022-09-04T10:56:14Z</time>
      </trkpt>
      <trkpt lat="45.97608" lon="4.59722">
        <ele>471</ele>
        <time>2022-09-04T10:57:04Z</time>
      </trkpt>
      <trkpt lat="45.97622" lon="4.5967">
        <ele>475</ele>
        <time>2022-09-04T10:57:55Z</time>
      </trkpt>
      <trkpt lat="45.97627" lon="4.59619">
        <ele>481</ele>
        <time>2022-09-04T10:58:43Z</time>
      </trkpt>
      <trkpt lat="45.97632" lon="4.59597">
        <ele>483</ele>
        <time>2022-09-04T10:59:05Z</time>
      </trkpt>
      <trkpt lat="45.97659" lon="4.59545">
        <ele>484</ele>
        <time>2022-09-04T11:00:05Z</time>
      </trkpt>
      <trkpt lat="45.97682" lon="4.59514">
        <ele>486</ele>
        <time>2022-09-04T11:00:47Z</time>
      </trkpt>
      <trkpt lat="45.97693" lon="4.59441">
        <ele>491</ele>
        <time>2022-09-04T11:01:56Z</time>
      </trkpt>
      <trkpt lat="45.97715" lon="4.59343">
        <ele>494</ele>
        <time>2022-09-04T11:03:32Z</time>
      </trkpt>
      <trkpt lat="45.97716" lon="4.59326">
        <ele>495</ele>
        <time>2022-09-04T11:03:47Z</time>
      </trkpt>
      <trkpt lat="45.97706" lon="4.59332">
        <ele>495</ele>
        <time>2022-09-04T11:04:02Z</time>
      </trkpt>
      <trkpt lat="45.97687" lon="4.59332">
        <ele>497</ele>
        <time>2022-09-04T11:04:27Z</time>
      </trkpt>
      <trkpt lat="45.97655" lon="4.59322">
        <ele>499</ele>
        <time>2022-09-04T11:05:11Z</time>
      </trkpt>
      <trkpt lat="45.97641" lon="4.59311">
        <ele>501</ele>
        <time>2022-09-04T11:05:32Z</time>
      </trkpt>
      <trkpt lat="45.97614" lon="4.59256">
        <ele>506</ele>
        <time>2022-09-04T11:06:35Z</time>
      </trkpt>
      <trkpt lat="45.97601" lon="4.59237">
        <ele>509</ele>
        <time>2022-09-04T11:06:59Z</time>
      </trkpt>
      <trkpt lat="45.97555" lon="4.59201">
        <ele>516</ele>
        <time>2022-09-04T11:08:09Z</time>
      </trkpt>
      <trkpt lat="45.97522" lon="4.59187">
        <ele>520</ele>
        <time>2022-09-04T11:08:55Z</time>
      </trkpt>
      <trkpt lat="45.97488" lon="4.5914">
        <ele>527</ele>
        <time>2022-09-04T11:09:58Z</time>
      </trkpt>
      <trkpt lat="45.97435" lon="4.59085">
        <ele>538</ele>
        <time>2022-09-04T11:11:25Z</time>
      </trkpt>
      <trkpt lat="45.97267" lon="4.58867">
        <ele>563</ele>
        <time>2022-09-04T11:16:27Z</time>
      </trkpt>
      <trkpt lat="45.97219" lon="4.5882">
        <ele>568</ele>
        <time>2022-09-04T11:17:45Z</time>
      </trkpt>
      <trkpt lat="45.97173" lon="4.58763">
        <ele>572</ele>
        <time>2022-09-04T11:19:06Z</time>
      </trkpt>
      <trkpt lat="45.97134" lon="4.5874">
        <ele>577</ele>
        <time>2022-09-04T11:20:02Z</time>
      </trkpt>
      <trkpt lat="45.97022" lon="4.58701">
        <ele>589</ele>
        <time>2022-09-04T11:22:36Z</time>
      </trkpt>
      <trkpt lat="45.9696" lon="4.58676">
        <ele>590</ele>
        <time>2022-09-04T11:24:02Z</time>
      </trkpt>
      <trkpt lat="45.96943" lon="4.58676">
        <ele>590</ele>
        <time>2022-09-04T11:24:24Z</time>
      </trkpt>
      <trkpt lat="45.96889" lon="4.58713">
        <ele>589</ele>
        <time>2022-09-04T11:25:44Z</time>
      </trkpt>
      <trkpt lat="45.96849" lon="4.58734">
        <ele>587</ele>
        <time>2022-09-04T11:26:41Z</time>
      </trkpt>
      <trkpt lat="45.96795" lon="4.5877">
        <ele>589</ele>
        <time>2022-09-04T11:28:00Z</time>
      </trkpt>
      <trkpt lat="45.96719" lon="4.5881">
        <ele>593</ele>
        <time>2022-09-04T11:29:48Z</time>
      </trkpt>
      <trkpt lat="45.96636" lon="4.58866">
        <ele>600</ele>
        <time>2022-09-04T11:31:51Z</time>
      </trkpt>
      <trkpt lat="45.9661" lon="4.58871">
        <ele>601</ele>
        <time>2022-09-04T11:32:26Z</time>
      </trkpt>
      <trkpt lat="45.96602" lon="4.58875">
        <ele>602</ele>
        <time>2022-09-04T11:32:37Z</time>
      </trkpt>
      <trkpt lat="45.96579" lon="4.58876">
        <ele>602</ele>
        <time>2022-09-04T11:33:08Z</time>
      </trkpt>
      <trkpt lat="45.96512" lon="4.58876">
        <ele>606</ele>
        <time>2022-09-04T11:34:37Z</time>
      </trkpt>
      <trkpt lat="45.96474" lon="4.58873">
        <ele>606</ele>
        <time>2022-09-04T11:35:28Z</time>
      </trkpt>
      <trkpt lat="45.96449" lon="4.58868">
        <ele>606</ele>
        <time>2022-09-04T11:36:02Z</time>
      </trkpt>
      <trkpt lat="45.96415" lon="4.58873">
        <ele>606</ele>
        <time>2022-09-04T11:36:47Z</time>
      </trkpt>
      <trkpt lat="45.9641" lon="4.58876">
        <ele>606</ele>
        <time>2022-09-04T11:36:54Z</time>
      </trkpt>
      <trkpt lat="45.96356" lon="4.5888">
        <ele>606</ele>
        <time>2022-09-04T11:38:07Z</time>
      </trkpt>
      <trkpt lat="45.96312" lon="4.58894">
        <ele>606</ele>
        <time>2022-09-04T11:39:07Z</time>
      </trkpt>
      <trkpt lat="45.9625" lon="4.58921">
        <ele>606</ele>
        <time>2022-09-04T11:40:33Z</time>
      </trkpt>
      <trkpt lat="45.96233" lon="4.58937">
        <ele>606</ele>
        <time>2022-09-04T11:41:00Z</time>
      </trkpt>
      <trkpt lat="45.96202" lon="4.58949">
        <ele>606</ele>
        <time>2022-09-04T11:41:43Z</time>
      </trkpt>
      <trkpt lat="45.96156" lon="4.58962">
        <ele>605</ele>
        <time>2022-09-04T11:42:46Z</time>
      </trkpt>
      <trkpt lat="45.96152" lon="4.58968">
        <ele>606</ele>
        <time>2022-09-04T11:42:53Z</time>
      </trkpt>
      <trkpt lat="45.96149" lon="4.58989">
        <ele>608</ele>
        <time>2022-09-04T11:43:13Z</time>
      </trkpt>
      <trkpt lat="45.96139" lon="4.59007">
        <ele>610</ele>
        <time>2022-09-04T11:43:35Z</time>
      </trkpt>
      <trkpt lat="45.96101" lon="4.59027">
        <ele>614</ele>
        <time>2022-09-04T11:44:29Z</time>
      </trkpt>
      <trkpt lat="45.96092" lon="4.59036">
        <ele>616</ele>
        <time>2022-09-04T11:44:43Z</time>
      </trkpt>
      <trkpt lat="45.96073" lon="4.59069">
        <ele>622</ele>
        <time>2022-09-04T11:45:23Z</time>
      </trkpt>
      <trkpt lat="45.96066" lon="4.59076">
        <ele>623</ele>
        <time>2022-09-04T11:45:34Z</time>
      </trkpt>
      <trkpt lat="45.96021" lon="4.59105">
        <ele>629</ele>
        <time>2022-09-04T11:46:40Z</time>
      </trkpt>
      <trkpt lat="45.96009" lon="4.59118">
        <ele>630</ele>
        <time>2022-09-04T11:47:00Z</time>
      </trkpt>
      <trkpt lat="45.95982" lon="4.59138">
        <ele>630</ele>
        <time>2022-09-04T11:47:41Z</time>
      </trkpt>
      <trkpt lat="45.95929" lon="4.59167">
        <ele>630</ele>
        <time>2022-09-04T11:48:56Z</time>
      </trkpt>
      <trkpt lat="45.95899" lon="4.59202">
        <ele>631</ele>
        <time>2022-09-04T11:49:48Z</time>
      </trkpt>
      <trkpt lat="45.95882" lon="4.59216">
        <ele>631</ele>
        <time>2022-09-04T11:50:14Z</time>
      </trkpt>
      <trkpt lat="45.95866" lon="4.59226">
        <ele>632</ele>
        <time>2022-09-04T11:50:37Z</time>
      </trkpt>
      <trkpt lat="45.95855" lon="4.5923">
        <ele>631</ele>
        <time>2022-09-04T11:50:53Z</time>
      </trkpt>
      <trkpt lat="45.95833" lon="4.59234">
        <ele>631</ele>
        <time>2022-09-04T11:51:22Z</time>
      </trkpt>
      <trkpt lat="45.95792" lon="4.59248">
        <ele>633</ele>
        <time>2022-09-04T11:52:18Z</time>
      </trkpt>
      <trkpt lat="45.95721" lon="4.59288">
        <ele>635</ele>
        <time>2022-09-04T11:54:00Z</time>
      </trkpt>
      <trkpt lat="45.95664" lon="4.59315">
        <ele>640</ele>
        <time>2022-09-04T11:55:20Z</time>
      </trkpt>
      <trkpt lat="45.95641" lon="4.59329">
        <ele>642</ele>
        <time>2022-09-04T11:55:54Z</time>
      </trkpt>
      <trkpt lat="45.95601" lon="4.59346">
        <ele>643</ele>
        <time>2022-09-04T11:56:49Z</time>
      </trkpt>
      <trkpt lat="45.95556" lon="4.59369">
        <ele>645</ele>
        <time>2022-09-04T11:57:53Z</time>
      </trkpt>
      <trkpt lat="45.95497" lon="4.59416">
        <ele>649</ele>
        <time>2022-09-04T11:59:23Z</time>
      </trkpt>
      <trkpt lat="45.95487" lon="4.59428">
        <ele>648</ele>
        <time>2022-09-04T11:59:40Z</time>
      </trkpt>
      <trkpt lat="45.95469" lon="4.59442">
        <ele>647</ele>
        <time>2022-09-04T12:00:08Z</time>
      </trkpt>
      <trkpt lat="45.95447" lon="4.59467">
        <ele>647</ele>
        <time>2022-09-04T12:00:45Z</time>
      </trkpt>
      <trkpt lat="45.95418" lon="4.59492">
        <ele>647</ele>
        <time>2022-09-04T12:01:30Z</time>
      </trkpt>
      <trkpt lat="45.95409" lon="4.59497">
        <ele>646</ele>
        <time>2022-09-04T12:01:43Z</time>
      </trkpt>
      <trkpt lat="45.95397" lon="4.5951">
        <ele>645</ele>
        <time>2022-09-04T12:02:03Z</time>
      </trkpt>
      <trkpt lat="45.95383" lon="4.59532">
        <ele>645</ele>
        <time>2022-09-04T12:02:31Z</time>
      </trkpt>
      <trkpt lat="45.95346" lon="4.59617">
        <ele>646</ele>
        <time>2022-09-04T12:04:04Z</time>
      </trkpt>
      <trkpt lat="45.95339" lon="4.59638">
        <ele>647</ele>
        <time>2022-09-04T12:04:25Z</time>
      </trkpt>
      <trkpt lat="45.95317" lon="4.5967">
        <ele>645</ele>
        <time>2022-09-04T12:05:07Z</time>
      </trkpt>
      <trkpt lat="45.95307" lon="4.5968">
        <ele>644</ele>
        <time>2022-09-04T12:05:23Z</time>
      </trkpt>
      <trkpt lat="45.9528" lon="4.59765">
        <ele>641</ele>
        <time>2022-09-04T12:06:50Z</time>
      </trkpt>
      <trkpt lat="45.95256" lon="4.59852">
        <ele>637</ele>
        <time>2022-09-04T12:08:17Z</time>
      </trkpt>
      <trkpt lat="45.95196" lon="4.60037">
        <ele>612</ele>
        <time>2022-09-04T12:11:26Z</time>
      </trkpt>
      <trkpt lat="45.95152" lon="4.60113">
        <ele>599</ele>
        <time>2022-09-04T12:12:58Z</time>
      </trkpt>
      <trkpt lat="45.95127" lon="4.60143">
        <ele>591</ele>
        <time>2022-09-04T12:13:42Z</time>
      </trkpt>
      <trkpt lat="45.95085" lon="4.60227">
        <ele>577</ele>
        <time>2022-09-04T12:15:18Z</time>
      </trkpt>
      <trkpt lat="45.9503" lon="4.60262">
        <ele>573</ele>
        <time>2022-09-04T12:16:38Z</time>
      </trkpt>
      <trkpt lat="45.95021" lon="4.60233">
        <ele>571</ele>
        <time>2022-09-04T12:17:07Z</time>
      </trkpt>
      <trkpt lat="45.9501" lon="4.60165">
        <ele>564</ele>
        <time>2022-09-04T12:18:12Z</time>
      </trkpt>
      <trkpt lat="45.95004" lon="4.60146">
        <ele>561</ele>
        <time>2022-09-04T12:18:31Z</time>
      </trkpt>
      <trkpt lat="45.94996" lon="4.60136">
        <ele>559</ele>
        <time>2022-09-04T12:18:46Z</time>
      </trkpt>
      <trkpt lat="45.95009" lon="4.60045">
        <ele>556</ele>
        <time>2022-09-04T12:20:12Z</time>
      </trkpt>
      <trkpt lat="45.95012" lon="4.59962">
        <ele>555</ele>
        <time>2022-09-04T12:21:29Z</time>
      </trkpt>
      <trkpt lat="45.95012" lon="4.59851">
        <ele>555</ele>
        <time>2022-09-04T12:23:12Z</time>
      </trkpt>
      <trkpt lat="45.95009" lon="4.59806">
        <ele>554</ele>
        <time>2022-09-04T12:23:54Z</time>
      </trkpt>
      <trkpt lat="45.95" lon="4.5976">
        <ele>553</ele>
        <time>2022-09-04T12:24:38Z</time>
      </trkpt>
      <trkpt lat="45.95001" lon="4.59706">
        <ele>554</ele>
        <time>2022-09-04T12:25:28Z</time>
      </trkpt>
      <trkpt lat="45.94995" lon="4.59619">
        <ele>554</ele>
        <time>2022-09-04T12:26:49Z</time>
      </trkpt>
      <trkpt lat="45.94995" lon="4.595">
        <ele>560</ele>
        <time>2022-09-04T12:28:40Z</time>
      </trkpt>
      <trkpt lat="45.9499" lon="4.59475">
        <ele>562</ele>
        <time>2022-09-04T12:29:04Z</time>
      </trkpt>
      <trkpt lat="45.94968" lon="4.59408">
        <ele>565</ele>
        <time>2022-09-04T12:30:13Z</time>
      </trkpt>
      <trkpt lat="45.94942" lon="4.59364">
        <ele>565</ele>
        <time>2022-09-04T12:31:06Z</time>
      </trkpt>
      <trkpt lat="45.949" lon="4.59366">
        <ele>559</ele>
        <time>2022-09-04T12:32:02Z</time>
      </trkpt>
      <trkpt lat="45.94838" lon="4.59347">
        <ele>552</ele>
        <time>2022-09-04T12:33:27Z</time>
      </trkpt>
      <trkpt lat="45.9481" lon="4.59342">
        <ele>547</ele>
        <time>2022-09-04T12:34:05Z</time>
      </trkpt>
      <trkpt lat="45.948" lon="4.59344">
        <ele>545</ele>
        <time>2022-09-04T12:34:18Z</time>
      </trkpt>
      <trkpt lat="45.94782" lon="4.59357">
        <ele>541</ele>
        <time>2022-09-04T12:34:45Z</time>
      </trkpt>
      <trkpt lat="45.94756" lon="4.59365">
        <ele>536</ele>
        <time>2022-09-04T12:35:20Z</time>
      </trkpt>
      <trkpt lat="45.94747" lon="4.59374">
        <ele>535</ele>
        <time>2022-09-04T12:35:35Z</time>
      </trkpt>
      <trkpt lat="45.94737" lon="4.59408">
        <ele>534</ele>
        <time>2022-09-04T12:36:09Z</time>
      </trkpt>
      <trkpt lat="45.94731" lon="4.59371">
        <ele>533</ele>
        <time>2022-09-04T12:36:45Z</time>
      </trkpt>
      <trkpt lat="45.94714" lon="4.59378">
        <ele>532</ele>
        <time>2022-09-04T12:37:08Z</time>
      </trkpt>
      <trkpt lat="45.94698" lon="4.5938">
        <ele>530</ele>
        <time>2022-09-04T12:37:30Z</time>
      </trkpt>
      <trkpt lat="45.94691" lon="4.59411">
        <ele>530</ele>
        <time>2022-09-04T12:38:00Z</time>
      </trkpt>
      <trkpt lat="45.9468" lon="4.5951">
        <ele>523</ele>
        <time>2022-09-04T12:39:33Z</time>
      </trkpt>
      <trkpt lat="45.94666" lon="4.59588">
        <ele>516</ele>
        <time>2022-09-04T12:40:48Z</time>
      </trkpt>
      <trkpt lat="45.94667" lon="4.59682">
        <ele>509</ele>
        <time>2022-09-04T12:42:15Z</time>
      </trkpt>
      <trkpt lat="45.94664" lon="4.59732">
        <ele>508</ele>
        <time>2022-09-04T12:43:01Z</time>
      </trkpt>
      <trkpt lat="45.94667" lon="4.59823">
        <ele>506</ele>
        <time>2022-09-04T12:44:26Z</time>
      </trkpt>
      <trkpt lat="45.94663" lon="4.5988">
        <ele>503</ele>
        <time>2022-09-04T12:45:19Z</time>
      </trkpt>
      <trkpt lat="45.94665" lon="4.59938">
        <ele>500</ele>
        <time>2022-09-04T12:46:13Z</time>
      </trkpt>
      <trkpt lat="45.94646" lon="4.60012">
        <ele>498</ele>
        <time>2022-09-04T12:47:26Z</time>
      </trkpt>
      <trkpt lat="45.94539" lon="4.59934">
        <ele>507</ele>
        <time>2022-09-04T12:50:06Z</time>
      </trkpt>
      <trkpt lat="45.94534" lon="4.59928">
        <ele>508</ele>
        <time>2022-09-04T12:50:15Z</time>
      </trkpt>
      <trkpt lat="45.94501" lon="4.59906">
        <ele>512</ele>
        <time>2022-09-04T12:51:03Z</time>
      </trkpt>
      <trkpt lat="45.94488" lon="4.59903">
        <ele>513</ele>
        <time>2022-09-04T12:51:21Z</time>
      </trkpt>
      <trkpt lat="45.94472" lon="4.59904">
        <ele>515</ele>
        <time>2022-09-04T12:51:42Z</time>
      </trkpt>
      <trkpt lat="45.94447" lon="4.599">
        <ele>517</ele>
        <time>2022-09-04T12:52:16Z</time>
      </trkpt>
      <trkpt lat="45.94422" lon="4.59909">
        <ele>518</ele>
        <time>2022-09-04T12:52:50Z</time>
      </trkpt>
      <trkpt lat="45.94404" lon="4.59912">
        <ele>519</ele>
        <time>2022-09-04T12:53:15Z</time>
      </trkpt>
      <trkpt lat="45.94388" lon="4.59906">
        <ele>520</ele>
        <time>2022-09-04T12:53:37Z</time>
      </trkpt>
      <trkpt lat="45.94344" lon="4.59853">
        <ele>525</ele>
        <time>2022-09-04T12:54:53Z</time>
      </trkpt>
      <trkpt lat="45.94296" lon="4.59789">
        <ele>528</ele>
        <time>2022-09-04T12:56:21Z</time>
      </trkpt>
      <trkpt lat="45.94342" lon="4.59648">
        <ele>528</ele>
        <time>2022-09-04T12:58:45Z</time>
      </trkpt>
      <trkpt lat="45.9435" lon="4.59636">
        <ele>528</ele>
        <time>2022-09-04T12:59:00Z</time>
      </trkpt>
      <trkpt lat="45.94408" lon="4.59563">
        <ele>523</ele>
        <time>2022-09-04T13:00:43Z</time>
      </trkpt>
      <trkpt lat="45.94429" lon="4.59546">
        <ele>521</ele>
        <time>2022-09-04T13:01:15Z</time>
      </trkpt>
      <trkpt lat="45.94499" lon="4.59504">
        <ele>524</ele>
        <time>2022-09-04T13:02:57Z</time>
      </trkpt>
      <trkpt lat="45.94477" lon="4.59428">
        <ele>516</ele>
        <time>2022-09-04T13:04:13Z</time>
      </trkpt>
      <trkpt lat="45.94476" lon="4.59409">
        <ele>514</ele>
        <time>2022-09-04T13:04:31Z</time>
      </trkpt>
      <trkpt lat="45.94472" lon="4.59396">
        <ele>512</ele>
        <time>2022-09-04T13:04:44Z</time>
      </trkpt>
      <trkpt lat="45.94451" lon="4.59357">
        <ele>504</ele>
        <time>2022-09-04T13:05:30Z</time>
      </trkpt>
      <trkpt lat="45.94443" lon="4.59354">
        <ele>503</ele>
        <time>2022-09-04T13:05:41Z</time>
      </trkpt>
      <trkpt lat="45.94431" lon="4.59354">
        <ele>501</ele>
        <time>2022-09-04T13:05:57Z</time>
      </trkpt>
      <trkpt lat="45.94399" lon="4.59364">
        <ele>499</ele>
        <time>2022-09-04T13:06:40Z</time>
      </trkpt>
      <trkpt lat="45.94392" lon="4.59359">
        <ele>498</ele>
        <time>2022-09-04T13:06:51Z</time>
      </trkpt>
      <trkpt lat="45.94365" lon="4.5936">
        <ele>496</ele>
        <time>2022-09-04T13:07:27Z</time>
      </trkpt>
      <trkpt lat="45.94309" lon="4.59379">
        <ele>497</ele>
        <time>2022-09-04T13:08:44Z</time>
      </trkpt>
      <trkpt lat="45.94281" lon="4.59384">
        <ele>498</ele>
        <time>2022-09-04T13:09:21Z</time>
      </trkpt>
      <trkpt lat="45.94221" lon="4.59403">
        <ele>501</ele>
        <time>2022-09-04T13:10:43Z</time>
      </trkpt>
      <trkpt lat="45.94185" lon="4.59409">
        <ele>501</ele>
        <time>2022-09-04T13:11:32Z</time>
      </trkpt>
      <trkpt lat="45.94166" lon="4.59304">
        <ele>481</ele>
        <time>2022-09-04T13:13:12Z</time>
      </trkpt>
      <trkpt lat="45.94157" lon="4.5923">
        <ele>465</ele>
        <time>2022-09-04T13:14:22Z</time>
      </trkpt>
      <trkpt lat="45.94139" lon="4.59195">
        <ele>457</ele>
        <time>2022-09-04T13:15:03Z</time>
      </trkpt>
      <trkpt lat="45.94135" lon="4.59192">
        <ele>456</ele>
        <time>2022-09-04T13:15:09Z</time>
      </trkpt>
      <trkpt lat="45.94096" lon="4.59246">
        <ele>465</ele>
        <time>2022-09-04T13:16:21Z</time>
      </trkpt>
      <trkpt lat="45.94076" lon="4.59244">
        <ele>462</ele>
        <time>2022-09-04T13:16:48Z</time>
      </trkpt>
      <trkpt lat="45.94056" lon="4.59252">
        <ele>458</ele>
        <time>2022-09-04T13:17:15Z</time>
      </trkpt>
      <trkpt lat="45.94036" lon="4.59266">
        <ele>456</ele>
        <time>2022-09-04T13:17:45Z</time>
      </trkpt>
      <trkpt lat="45.94028" lon="4.59283">
        <ele>457</ele>
        <time>2022-09-04T13:18:04Z</time>
      </trkpt>
      <trkpt lat="45.94014" lon="4.59326">
        <ele>460</ele>
        <time>2022-09-04T13:18:48Z</time>
      </trkpt>
      <trkpt lat="45.93985" lon="4.59344">
        <ele>458</ele>
        <time>2022-09-04T13:19:30Z</time>
      </trkpt>
      <trkpt lat="45.93946" lon="4.59364">
        <ele>457</ele>
        <time>2022-09-04T13:20:25Z</time>
      </trkpt>
      <trkpt lat="45.93875" lon="4.59388">
        <ele>459</ele>
        <time>2022-09-04T13:22:03Z</time>
      </trkpt>
      <trkpt lat="45.93866" lon="4.59397">
        <ele>461</ele>
        <time>2022-09-04T13:22:17Z</time>
      </trkpt>
      <trkpt lat="45.93851" lon="4.59419">
        <ele>464</ele>
        <time>2022-09-04T13:22:46Z</time>
      </trkpt>
      <trkpt lat="45.93826" lon="4.59512">
        <ele>475</ele>
        <time>2022-09-04T13:24:19Z</time>
      </trkpt>
      <trkpt lat="45.93807" lon="4.5955">
        <ele>479</ele>
        <time>2022-09-04T13:25:02Z</time>
      </trkpt>
      <trkpt lat="45.93804" lon="4.59564">
        <ele>480</ele>
        <time>2022-09-04T13:25:16Z</time>
      </trkpt>
      <trkpt lat="45.93806" lon="4.59595">
        <ele>483</ele>
        <time>2022-09-04T13:25:44Z</time>
      </trkpt>
      <trkpt lat="45.93799" lon="4.59597">
        <ele>483</ele>
        <time>2022-09-04T13:25:54Z</time>
      </trkpt>
      <trkpt lat="45.93756" lon="4.59595">
        <ele>478</ele>
        <time>2022-09-04T13:26:51Z</time>
      </trkpt>
      <trkpt lat="45.93714" lon="4.5959">
        <ele>471</ele>
        <time>2022-09-04T13:27:48Z</time>
      </trkpt>
      <trkpt lat="45.93706" lon="4.59592">
        <ele>469</ele>
        <time>2022-09-04T13:27:58Z</time>
      </trkpt>
      <trkpt lat="45.93688" lon="4.59609">
        <ele>464</ele>
        <time>2022-09-04T13:28:27Z</time>
      </trkpt>
      <trkpt lat="45.93681" lon="4.59609">
        <ele>463</ele>
        <time>2022-09-04T13:28:37Z</time>
      </trkpt>
      <trkpt lat="45.93676" lon="4.59606">
        <ele>462</ele>
        <time>2022-09-04T13:28:44Z</time>
      </trkpt>
      <trkpt lat="45.93671" lon="4.59587">
        <ele>463</ele>
        <time>2022-09-04T13:29:03Z</time>
      </trkpt>
      <trkpt lat="45.93653" lon="4.59577">
        <ele>458</ele>
        <time>2022-09-04T13:29:28Z</time>
      </trkpt>
      <trkpt lat="45.93642" lon="4.59572">
        <ele>456</ele>
        <time>2022-09-04T13:29:44Z</time>
      </trkpt>
      <trkpt lat="45.93634" lon="4.59573">
        <ele>454</ele>
        <time>2022-09-04T13:29:54Z</time>
      </trkpt>
      <trkpt lat="45.93616" lon="4.59583">
        <ele>451</ele>
        <time>2022-09-04T13:30:20Z</time>
      </trkpt>
      <trkpt lat="45.93609" lon="4.59582">
        <ele>449</ele>
        <time>2022-09-04T13:30:30Z</time>
      </trkpt>
      <trkpt lat="45.93573" lon="4.59556">
        <ele>441</ele>
        <time>2022-09-04T13:31:23Z</time>
      </trkpt>
      <trkpt lat="45.93562" lon="4.59542">
        <ele>439</ele>
        <time>2022-09-04T13:31:43Z</time>
      </trkpt>
      <trkpt lat="45.93515" lon="4.59505">
        <ele>430</ele>
        <time>2022-09-04T13:32:54Z</time>
      </trkpt>
      <trkpt lat="45.93499" lon="4.59487">
        <ele>426</ele>
        <time>2022-09-04T13:33:22Z</time>
      </trkpt>
      <trkpt lat="45.93472" lon="4.59448">
        <ele>420</ele>
        <time>2022-09-04T13:34:13Z</time>
      </trkpt>
      <trkpt lat="45.93415" lon="4.59393">
        <ele>407</ele>
        <time>2022-09-04T13:35:44Z</time>
      </trkpt>
      <trkpt lat="45.93421" lon="4.59374">
        <ele>407</ele>
        <time>2022-09-04T13:36:04Z</time>
      </trkpt>
      <trkpt lat="45.93433" lon="4.59359">
        <ele>407</ele>
        <time>2022-09-04T13:36:25Z</time>
      </trkpt>
      <trkpt lat="45.93443" lon="4.59341">
        <ele>406</ele>
        <time>2022-09-04T13:36:46Z</time>
      </trkpt>
      <trkpt lat="45.9349" lon="4.59272">
        <ele>397</ele>
        <time>2022-09-04T13:38:16Z</time>
      </trkpt>
      <trkpt lat="45.93528" lon="4.59226">
        <ele>391</ele>
        <time>2022-09-04T13:39:22Z</time>
      </trkpt>
      <trkpt lat="45.93532" lon="4.59218">
        <ele>389</ele>
        <time>2022-09-04T13:39:31Z</time>
      </trkpt>
      <trkpt lat="45.93498" lon="4.59203">
        <ele>384</ele>
        <time>2022-09-04T13:40:19Z</time>
      </trkpt>
      <trkpt lat="45.93491" lon="4.59149">
        <ele>378</ele>
        <time>2022-09-04T13:41:10Z</time>
      </trkpt>
      <trkpt lat="45.93466" lon="4.5911">
        <ele>380</ele>
        <time>2022-09-04T13:41:59Z</time>
      </trkpt>
      <trkpt lat="45.93454" lon="4.59102">
        <ele>380</ele>
        <time>2022-09-04T13:42:17Z</time>
      </trkpt>
      <trkpt lat="45.93415" lon="4.59095">
        <ele>379</ele>
        <time>2022-09-04T13:43:09Z</time>
      </trkpt>
      <trkpt lat="45.93369" lon="4.59081">
        <ele>381</ele>
        <time>2022-09-04T13:44:12Z</time>
      </trkpt>
      <trkpt lat="45.93349" lon="4.5906">
        <ele>385</ele>
        <time>2022-09-04T13:44:45Z</time>
      </trkpt>
      <trkpt lat="45.93352" lon="4.59047">
        <ele>387</ele>
        <time>2022-09-04T13:44:58Z</time>
      </trkpt>
      <trkpt lat="45.93323" lon="4.5908">
        <ele>382</ele>
        <time>2022-09-04T13:45:47Z</time>
      </trkpt>
      <trkpt lat="45.93296" lon="4.591">
        <ele>379</ele>
        <time>2022-09-04T13:46:27Z</time>
      </trkpt>
      <trkpt lat="45.93239" lon="4.59116">
        <ele>377</ele>
        <time>2022-09-04T13:47:45Z</time>
      </trkpt>
      <trkpt lat="45.9322" lon="4.59131">
        <ele>374</ele>
        <time>2022-09-04T13:48:14Z</time>
      </trkpt>
      <trkpt lat="45.93211" lon="4.59145">
        <ele>371</ele>
        <time>2022-09-04T13:48:32Z</time>
      </trkpt>
      <trkpt lat="45.9316" lon="4.59188">
        <ele>365</ele>
        <time>2022-09-04T13:49:50Z</time>
      </trkpt>
      <trkpt lat="45.93125" lon="4.59209">
        <ele>362</ele>
        <time>2022-09-04T13:50:41Z</time>
      </trkpt>
      <trkpt lat="45.93103" lon="4.59209">
        <ele>362</ele>
        <time>2022-09-04T13:51:10Z</time>
      </trkpt>
      <trkpt lat="45.93045" lon="4.59217">
        <ele>362</ele>
        <time>2022-09-04T13:52:28Z</time>
      </trkpt>
      <trkpt lat="45.93001" lon="4.59229">
        <ele>360</ele>
        <time>2022-09-04T13:53:28Z</time>
      </trkpt>
      <trkpt lat="45.92968" lon="4.59241">
        <ele>358</ele>
        <time>2022-09-04T13:54:13Z</time>
      </trkpt>
      <trkpt lat="45.9294" lon="4.59241">
        <ele>359</ele>
        <time>2022-09-04T13:54:51Z</time>
      </trkpt>
      <trkpt lat="45.92864" lon="4.59232">
        <ele>358</ele>
        <time>2022-09-04T13:56:33Z</time>
      </trkpt>
      <trkpt lat="45.92842" lon="4.59227">
        <ele>358</ele>
        <time>2022-09-04T13:57:02Z</time>
      </trkpt>
      <trkpt lat="45.92709" lon="4.59184">
        <ele>358</ele>
        <time>2022-09-04T14:00:04Z</time>
      </trkpt>
      <trkpt lat="45.92693" lon="4.59176">
        <ele>360</ele>
        <time>2022-09-04T14:00:27Z</time>
      </trkpt>
      <trkpt lat="45.92648" lon="4.5916">
        <ele>361</ele>
        <time>2022-09-04T14:01:29Z</time>
      </trkpt>
      <trkpt lat="45.92647" lon="4.59147">
        <ele>365</ele>
        <time>2022-09-04T14:01:41Z</time>
      </trkpt>
      <trkpt lat="45.9264" lon="4.59138">
        <ele>366</ele>
        <time>2022-09-04T14:01:53Z</time>
      </trkpt>
      <trkpt lat="45.92595" lon="4.59107">
        <ele>369</ele>
        <time>2022-09-04T14:03:00Z</time>
      </trkpt>
      <trkpt lat="45.92573" lon="4.59101">
        <ele>367</ele>
        <time>2022-09-04T14:03:30Z</time>
      </trkpt>
      <trkpt lat="45.92554" lon="4.5909">
        <ele>365</ele>
        <time>2022-09-04T14:03:57Z</time>
      </trkpt>
      <trkpt lat="45.92521" lon="4.59049">
        <ele>364</ele>
        <time>2022-09-04T14:04:55Z</time>
      </trkpt>
      <trkpt lat="45.92504" lon="4.59021">
        <ele>365</ele>
        <time>2022-09-04T14:05:30Z</time>
      </trkpt>
      <trkpt lat="45.92453" lon="4.58966">
        <ele>362</ele>
        <time>2022-09-04T14:06:55Z</time>
      </trkpt>
      <trkpt lat="45.92431" lon="4.58884">
        <ele>365</ele>
        <time>2022-09-04T14:08:16Z</time>
      </trkpt>
      <trkpt lat="45.92394" lon="4.58792">
        <ele>364</ele>
        <time>2022-09-04T14:09:55Z</time>
      </trkpt>
      <trkpt lat="45.92371" lon="4.58726">
        <ele>362</ele>
        <time>2022-09-04T14:11:04Z</time>
      </trkpt>
      <trkpt lat="45.92322" lon="4.58684">
        <ele>357</ele>
        <time>2022-09-04T14:12:20Z</time>
      </trkpt>
      <trkpt lat="45.92322" lon="4.58675">
        <ele>358</ele>
        <time>2022-09-04T14:12:28Z</time>
      </trkpt>
      <trkpt lat="45.923" lon="4.58639">
        <ele>359</ele>
        <time>2022-09-04T14:13:13Z</time>
      </trkpt>
      <trkpt lat="45.92268" lon="4.58601">
        <ele>359</ele>
        <time>2022-09-04T14:14:08Z</time>
      </trkpt>
      <trkpt lat="45.92252" lon="4.58588">
        <ele>360</ele>
        <time>2022-09-04T14:14:33Z</time>
      </trkpt>
      <trkpt lat="45.92207" lon="4.58566">
        <ele>358</ele>
        <time>2022-09-04T14:15:36Z</time>
      </trkpt>
      <trkpt lat="45.92185" lon="4.58547">
        <ele>358</ele>
        <time>2022-09-04T14:16:10Z</time>
      </trkpt>
      <trkpt lat="45.92177" lon="4.58521">
        <ele>357</ele>
        <time>2022-09-04T14:16:37Z</time>
      </trkpt>
      <trkpt lat="45.92162" lon="4.58534">
        <ele>357</ele>
        <time>2022-09-04T14:17:00Z</time>
      </trkpt>
      <trkpt lat="45.9212" lon="4.58561">
        <ele>356</ele>
        <time>2022-09-04T14:18:01Z</time>
      </trkpt>
      <trkpt lat="45.92112" lon="4.58551">
        <ele>355</ele>
        <time>2022-09-04T14:18:16Z</time>
      </trkpt>
      <trkpt lat="45.92106" lon="4.58538">
        <ele>355</ele>
        <time>2022-09-04T14:18:30Z</time>
      </trkpt>
      <trkpt lat="45.92084" lon="4.58552">
        <ele>355</ele>
        <time>2022-09-04T14:19:02Z</time>
      </trkpt>
      <trkpt lat="45.92072" lon="4.58565">
        <ele>354</ele>
        <time>2022-09-04T14:19:22Z</time>
      </trkpt>
      <trkpt lat="45.92052" lon="4.58594">
        <ele>353</ele>
        <time>2022-09-04T14:20:00Z</time>
      </trkpt>
      <trkpt lat="45.9203" lon="4.58634">
        <ele>350</ele>
        <time>2022-09-04T14:20:47Z</time>
      </trkpt>
      <trkpt lat="45.91999" lon="4.5867">
        <ele>348</ele>
        <time>2022-09-04T14:21:41Z</time>
      </trkpt>
      <trkpt lat="45.91956" lon="4.58749">
        <ele>339</ele>
        <time>2022-09-04T14:23:14Z</time>
      </trkpt>
      <trkpt lat="45.91962" lon="4.58757">
        <ele>338</ele>
        <time>2022-09-04T14:23:25Z</time>
      </trkpt>
      <trkpt lat="45.92086" lon="4.58814">
        <ele>332</ele>
        <time>2022-09-04T14:26:18Z</time>
      </trkpt>
    </trkseg>
  </trk>
</gpx>